Videla, Argentina
Current Conditions -  °F | °C
As of 8:00 PM on Monday 20 Oct 2014 (Local Time) from SAAR Reporting Station
Clear Clear  
Wind Chill: 22°   Ceiling: Unl
Heat Index: 22°   Visibility: 6mi
Dew Point: 15°   Wind: 2mph
Humidity: 64%   Direction: 90°E
Pressure: 30.06"   Gusts: NA
Location:  30.93°S, 60.65°W
Report Text: SAAR 202300Z 09002KT CAVOK 22/15 Q1018
Loading
Personal Weather Stations






























Interactive Weather Map
Tropical Storm Tracking
New forecast layout! Learn more

10-Day Weather Forecast

Advertisements
Track Severe Weather on mobile